createdAt,value
2022-08-10T00:00:16.024Z,63.95
2022-08-10T00:02:08.915Z,62.48
2022-08-10T00:03:08.905Z,63.34
2022-08-10T00:05:12.864Z,63.06
2022-08-10T00:06:12.854Z,63.06
2022-08-10T00:08:22.441Z,63.92
2022-08-10T00:09:16.810Z,62.96
2022-08-10T00:11:20.780Z,64.11
2022-08-10T00:12:20.769Z,64.02
2022-08-10T00:14:24.720Z,63.79
2022-08-10T00:15:52.510Z,63.89
2022-08-10T00:17:28.685Z,64.28
2022-08-10T00:18:34.905Z,63.60
2022-08-10T00:20:32.627Z,64.08
2022-08-10T00:21:32.623Z,64.18
2022-08-10T00:23:36.581Z,65.14
2022-08-10T00:24:40.181Z,64.47
2022-08-10T00:27:52.061Z,64.66
2022-08-10T00:28:01.355Z,64.18
2022-08-10T00:29:44.473Z,64.18
2022-08-10T00:30:44.462Z,63.79
2022-08-10T00:32:48.428Z,64.08
2022-08-10T00:33:48.421Z,64.47
2022-08-10T00:35:52.392Z,64.08
2022-08-10T00:36:52.370Z,64.47
2022-08-10T00:38:56.329Z,64.47
2022-08-10T00:39:56.385Z,64.66
2022-08-10T00:42:07.235Z,64.28
2022-08-10T00:42:49.195Z,65.05
2022-08-10T00:44:53.151Z,64.08
2022-08-10T00:45:58.516Z,64.66
2022-08-10T00:47:57.109Z,64.76
2022-08-10T00:49:00.699Z,65.53
2022-08-10T00:51:01.061Z,65.33
2022-08-10T00:52:01.050Z,65.14
2022-08-10T00:54:05.008Z,64.37
2022-08-10T00:55:05.003Z,64.56
2022-08-10T00:57:16.268Z,65.43
2022-08-10T00:58:08.942Z,65.14
2022-08-10T01:00:12.902Z,64.86
2022-08-10T01:02:09.962Z,64.76
2022-08-10T01:03:16.869Z,64.86
2022-08-10T01:04:57.984Z,65.14
2022-08-10T01:06:20.816Z,64.56
2022-08-10T01:07:20.794Z,64.95
2022-08-10T01:09:24.752Z,65.43
2022-08-10T01:10:24.742Z,64.86
2022-08-10T01:12:39.752Z,65.14
2022-08-10T01:13:28.694Z,65.24
2022-08-10T01:15:32.650Z,65.91
2022-08-10T01:16:32.648Z,65.81
2022-08-10T01:18:37.941Z,66.01
2022-08-10T01:19:36.594Z,65.63
2022-08-10T01:21:29.486Z,64.66
2022-08-10T01:22:29.468Z,64.66
2022-08-10T01:24:33.433Z,66.49
2022-08-10T01:25:33.416Z,65.81
2022-08-10T01:27:37.387Z,65.20
2022-08-10T01:28:37.373Z,65.88
2022-08-10T01:30:41.399Z,65.20
2022-08-10T01:31:41.383Z,66.36
2022-08-10T01:33:58.564Z,65.50
2022-08-10T01:34:45.334Z,65.88
2022-08-10T01:35:45.330Z,67.23
2022-08-10T01:36:45.328Z,68.29
2022-08-10T01:37:52.332Z,66.75
2022-08-10T01:38:45.334Z,65.69
2022-08-10T01:39:45.441Z,66.75
2022-08-10T01:40:45.323Z,66.46
2022-08-10T01:41:46.618Z,66.07
2022-08-10T01:42:45.313Z,66.27
2022-08-10T01:43:45.306Z,66.07
2022-08-10T01:44:45.306Z,66.94
2022-08-10T01:45:46.106Z,66.55
2022-08-10T01:46:45.298Z,67.77
2022-08-10T01:47:45.294Z,66.27
2022-08-10T01:48:45.295Z,66.75
2022-08-10T01:49:45.292Z,66.75
2022-08-10T01:50:59.870Z,67.13
2022-08-10T01:51:45.282Z,67.10
2022-08-10T01:52:45.283Z,67.61
2022-08-10T01:53:45.275Z,66.42
2022-08-10T01:54:45.275Z,67.10
2022-08-10T01:55:45.274Z,67.10
2022-08-10T01:56:45.270Z,69.60
2022-08-10T01:57:45.264Z,67.77
2022-08-10T01:58:45.263Z,67.68
2022-08-10T01:59:58.795Z,67.58
2022-08-10T02:00:45.256Z,67.77
2022-08-10T02:01:45.375Z,67.19
2022-08-10T02:02:45.251Z,67.00
2022-08-10T02:04:04.072Z,67.19
2022-08-10T02:04:45.243Z,67.19
2022-08-10T02:05:45.238Z,67.68
2022-08-10T02:06:45.243Z,67.39
2022-08-10T02:07:45.236Z,67.10
2022-08-10T02:08:45.230Z,67.39
2022-08-10T02:09:45.224Z,67.29
2022-08-10T02:10:45.225Z,68.93
2022-08-10T02:12:05.202Z,68.06
2022-08-10T02:12:45.223Z,68.64
2022-08-10T02:13:45.211Z,67.58
2022-08-10T02:14:45.211Z,68.16
2022-08-10T02:16:01.024Z,68.06
2022-08-10T02:16:45.194Z,68.06
2022-08-10T02:18:00.827Z,67.97
2022-08-10T02:18:45.197Z,68.64
2022-08-10T02:19:45.195Z,67.77
2022-08-10T02:20:45.193Z,68.16
2022-08-10T02:22:38.229Z,68.54
2022-08-10T02:22:45.213Z,68.84
2022-08-10T02:23:45.179Z,67.49
2022-08-10T02:24:45.184Z,68.64
2022-08-10T02:25:45.176Z,68.70
2022-08-10T02:26:45.171Z,69.85
2022-08-10T02:27:45.167Z,69.95
2022-08-10T02:28:45.165Z,69.67
2022-08-10T02:29:45.158Z,69.95
2022-08-10T02:30:45.165Z,69.28
2022-08-10T02:31:45.154Z,69.95
2022-08-10T02:32:51.751Z,70.34
2022-08-10T02:33:56.754Z,70.05
2022-08-10T02:34:45.146Z,69.85
2022-08-10T02:35:55.523Z,70.53
2022-08-10T02:36:45.141Z,70.43
2022-08-10T02:37:45.135Z,70.53
2022-08-10T02:38:58.325Z,69.85
2022-08-10T02:39:45.223Z,70.53
2022-08-10T02:45:01.911Z,70.98
2022-08-10T02:45:15.846Z,69.85
2022-08-10T02:45:18.780Z,70.78
2022-08-10T02:45:19.342Z,70.21
2022-08-10T02:45:22.578Z,70.21
2022-08-10T02:45:45.105Z,70.21
2022-08-10T02:46:45.114Z,71.36
2022-08-10T02:47:51.286Z,71.26
2022-08-10T02:48:45.112Z,70.88
2022-08-10T02:49:45.094Z,70.88
2022-08-10T02:50:45.091Z,71.55
2022-08-10T02:52:08.149Z,70.40
2022-08-10T02:52:45.083Z,71.46
2022-08-10T02:53:55.012Z,72.32
2022-08-10T02:54:45.081Z,71.65
2022-08-10T02:55:45.072Z,71.46
2022-08-10T02:56:45.073Z,70.68
2022-08-10T02:58:13.390Z,71.75
2022-08-10T02:58:45.063Z,71.36
2022-08-10T02:59:45.059Z,72.03
2022-08-10T03:00:45.131Z,71.26
2022-08-10T03:01:45.051Z,72.61
2022-08-10T03:02:45.049Z,72.00
2022-08-10T03:03:45.046Z,72.67
2022-08-10T03:04:55.743Z,72.48
2022-08-10T03:05:45.037Z,72.96
2022-08-10T03:06:45.038Z,72.58
2022-08-10T03:07:45.257Z,72.96
2022-08-10T03:08:45.028Z,72.48
2022-08-10T03:09:45.027Z,72.48
2022-08-10T03:10:45.024Z,73.25
2022-08-10T03:12:37.651Z,72.67
2022-08-10T03:12:45.015Z,72.77
2022-08-10T03:13:46.376Z,72.48
2022-08-10T03:14:45.012Z,72.86
2022-08-10T03:15:45.002Z,73.73
2022-08-10T03:16:45.000Z,72.96
2022-08-10T03:17:57.665Z,72.58
2022-08-10T03:18:44.994Z,72.86
2022-08-10T03:20:34.423Z,72.67
2022-08-10T03:20:44.984Z,72.77
2022-08-10T03:21:44.981Z,73.47
2022-08-10T03:22:44.979Z,72.58
2022-08-10T03:23:44.972Z,72.67
2022-08-10T03:24:44.978Z,72.32
2022-08-10T03:25:53.342Z,72.90
2022-08-10T03:26:44.967Z,72.61
2022-08-10T03:27:44.959Z,72.32
2022-08-10T03:28:44.956Z,72.52
2022-08-10T03:30:29.882Z,73.19
2022-08-10T03:30:44.947Z,72.32
2022-08-10T03:31:44.946Z,71.94
2022-08-10T03:32:44.944Z,71.94
2022-08-10T03:33:44.934Z,73.09
2022-08-10T03:34:44.935Z,72.13
2022-08-10T03:36:43.936Z,72.71
2022-08-10T03:36:45.232Z,73.09
2022-08-10T03:37:44.923Z,72.52
2022-08-10T03:38:44.919Z,73.00
2022-08-10T03:39:45.008Z,72.86
2022-08-10T03:40:46.705Z,73.06
2022-08-10T03:41:53.257Z,73.19
2022-08-10T03:42:44.906Z,74.69
2022-08-10T03:43:44.899Z,73.77
2022-08-10T03:44:49.856Z,73.25
2022-08-10T03:45:55.123Z,73.73
2022-08-10T03:46:44.892Z,73.44
2022-08-10T03:47:44.887Z,74.40
2022-08-10T03:48:49.104Z,74.40
2022-08-10T03:49:44.883Z,74.40
2022-08-10T03:50:51.025Z,74.40
2022-08-10T03:51:44.872Z,74.98
2022-08-10T03:52:44.867Z,73.63
2022-08-10T03:54:04.472Z,73.83
2022-08-10T03:54:44.861Z,73.92
2022-08-10T03:56:28.950Z,75.07
2022-08-10T03:56:44.851Z,74.30
2022-08-10T03:57:49.674Z,74.02
2022-08-10T03:58:44.846Z,75.07
2022-08-10T03:59:44.846Z,75.65
2022-08-10T04:00:44.897Z,75.56
2022-08-10T04:02:46.581Z,74.30
2022-08-10T04:02:52.881Z,75.56
2022-08-10T04:03:44.826Z,75.56
2022-08-10T04:04:44.825Z,75.71
2022-08-10T04:05:44.816Z,75.37
2022-08-10T04:06:44.818Z,75.46
2022-08-10T04:07:44.799Z,75.27
2022-08-10T04:08:44.818Z,75.62
2022-08-10T04:09:55.391Z,77.15
2022-08-10T04:10:44.799Z,77.34
2022-08-10T04:11:44.793Z,77.25
2022-08-10T04:12:44.794Z,77.53
2022-08-10T04:13:44.790Z,77.06
2022-08-10T04:14:50.901Z,78.21
2022-08-10T04:15:44.784Z,77.44
2022-08-10T04:16:44.779Z,77.83
2022-08-10T04:18:03.325Z,76.77
2022-08-10T04:18:44.769Z,77.34
2022-08-10T04:19:44.762Z,78.21
2022-08-10T04:20:44.762Z,77.63
2022-08-10T04:21:44.756Z,77.15
2022-08-10T04:22:44.779Z,76.96
2022-08-10T04:23:44.749Z,77.21
2022-08-10T04:24:44.746Z,77.40
2022-08-10T04:25:44.741Z,77.59
2022-08-10T04:26:44.748Z,78.36
2022-08-10T04:27:44.732Z,78.45
2022-08-10T04:28:44.730Z,77.88
2022-08-10T04:29:44.724Z,78.17
2022-08-10T04:30:44.724Z,79.61
2022-08-10T04:31:44.718Z,79.03
2022-08-10T04:32:44.713Z,79.03
2022-08-10T04:33:44.708Z,79.99
2022-08-10T04:34:44.703Z,79.61
2022-08-10T04:35:44.704Z,80.19
2022-08-10T04:36:44.700Z,79.52
2022-08-10T04:37:47.087Z,79.71
2022-08-10T04:38:44.690Z,79.09
2022-08-10T04:39:44.752Z,79.42
2022-08-10T04:40:44.685Z,80.19
2022-08-10T04:41:47.489Z,80.19
2022-08-10T04:42:44.672Z,80.57
2022-08-10T04:43:44.669Z,81.15
2022-08-10T04:44:44.663Z,81.30
2022-08-10T04:45:49.613Z,80.38
2022-08-10T04:46:57.855Z,80.73
2022-08-10T04:47:57.740Z,80.82
2022-08-10T04:49:01.354Z,81.34
2022-08-10T04:49:55.301Z,81.78
2022-08-10T04:50:44.644Z,81.53
2022-08-10T04:51:44.660Z,81.34
2022-08-10T04:52:44.631Z,81.97
2022-08-10T04:54:03.272Z,81.24
2022-08-10T04:54:44.622Z,81.53
2022-08-10T04:55:44.619Z,82.30
2022-08-10T04:56:44.617Z,81.63
2022-08-10T04:57:44.607Z,81.92
2022-08-10T04:58:44.606Z,82.01
2022-08-10T04:59:44.601Z,81.82
2022-08-10T05:00:44.658Z,80.66
2022-08-10T05:02:28.695Z,80.96
2022-08-10T05:02:44.586Z,81.24
2022-08-10T05:04:35.689Z,81.53
2022-08-10T05:04:44.579Z,81.24
2022-08-10T05:05:44.578Z,81.63
2022-08-10T05:06:44.576Z,81.24
2022-08-10T05:07:53.916Z,81.63
2022-08-10T05:08:44.570Z,81.43
2022-08-10T05:10:02.741Z,81.24
2022-08-10T05:10:44.558Z,80.86
2022-08-10T05:11:44.556Z,80.76
2022-08-10T05:12:44.550Z,81.57
2022-08-10T05:13:44.546Z,81.86
2022-08-10T05:14:44.540Z,81.72
2022-08-10T05:15:44.539Z,81.96
2022-08-10T05:16:44.533Z,81.86
2022-08-10T05:18:06.066Z,81.86
2022-08-10T05:18:44.523Z,80.80
2022-08-10T05:20:03.031Z,81.38
2022-08-10T05:20:47.305Z,82.43
2022-08-10T05:22:03.396Z,82.43
2022-08-10T05:22:44.504Z,81.48
2022-08-10T05:23:44.507Z,80.99
2022-08-10T05:24:44.497Z,81.28
2022-08-10T05:25:44.493Z,80.36
2022-08-10T05:27:09.136Z,79.40
2022-08-10T05:27:44.488Z,78.63
2022-08-10T05:28:44.482Z,79.98
2022-08-10T05:29:44.481Z,79.60
2022-08-10T05:30:44.485Z,79.98
2022-08-10T05:31:44.517Z,77.23
2022-08-10T05:32:56.301Z,76.94
2022-08-10T05:33:44.464Z,77.61
2022-08-10T05:34:44.457Z,77.61
2022-08-10T05:35:57.782Z,77.42
2022-08-10T05:36:44.451Z,79.44
2022-08-10T05:38:11.979Z,78.28
2022-08-10T05:38:44.443Z,77.56
2022-08-10T05:39:44.474Z,76.98
2022-08-10T05:40:46.452Z,75.82
2022-08-10T05:41:47.734Z,77.65
2022-08-10T05:42:44.442Z,76.88
2022-08-10T05:43:44.423Z,76.31
2022-08-10T05:44:44.415Z,76.01
2022-08-10T05:46:16.705Z,77.17
2022-08-10T05:46:44.411Z,76.11
2022-08-10T05:48:41.995Z,75.05
2022-08-10T05:48:59.252Z,76.21
2022-08-10T05:49:44.401Z,76.40
2022-08-10T05:50:44.393Z,76.44
2022-08-10T05:51:44.401Z,76.25
2022-08-10T05:52:44.387Z,75.09
2022-08-10T05:54:03.407Z,75.09
2022-08-10T05:54:44.376Z,74.03
2022-08-10T05:55:44.377Z,76.06
2022-08-10T05:56:56.299Z,74.41
2022-08-10T05:57:44.368Z,75.38
2022-08-10T05:58:44.400Z,74.03
2022-08-10T06:00:32.782Z,72.91
2022-08-10T06:00:49.776Z,72.24
2022-08-10T06:01:44.359Z,73.20
2022-08-10T06:02:44.706Z,74.65
2022-08-10T06:03:44.347Z,73.01
2022-08-10T06:04:44.349Z,73.01
2022-08-10T06:05:44.337Z,73.58
2022-08-10T06:06:44.334Z,73.20
2022-08-10T06:07:44.329Z,74.49
2022-08-10T06:08:44.329Z,72.75
2022-08-10T06:09:58.549Z,71.41
2022-08-10T06:12:23.600Z,70.92
2022-08-10T06:12:26.025Z,71.98
2022-08-10T06:12:54.982Z,71.79
2022-08-10T06:13:59.884Z,71.50
2022-08-10T06:14:44.303Z,71.60
2022-08-10T06:15:52.221Z,71.89
2022-08-10T06:16:44.318Z,70.35
2022-08-10T06:17:44.294Z,70.86
2022-08-10T06:18:44.288Z,70.38
2022-08-10T06:19:44.289Z,69.80
2022-08-10T06:20:44.292Z,69.13
2022-08-10T06:21:53.646Z,68.84
2022-08-10T06:22:44.280Z,69.90
2022-08-10T06:23:44.273Z,70.09
2022-08-10T06:25:12.290Z,70.32
2022-08-10T06:26:09.815Z,71.34
2022-08-10T06:26:44.251Z,70.61
2022-08-10T06:27:44.258Z,70.38
2022-08-10T06:29:02.347Z,69.93
2022-08-10T06:29:44.250Z,68.59
2022-08-10T06:30:44.245Z,68.59
2022-08-10T06:31:48.870Z,68.77
2022-08-10T06:32:44.237Z,67.23
2022-08-10T06:33:44.237Z,67.33
2022-08-10T06:34:44.234Z,68.29
2022-08-10T06:35:44.230Z,68.68
2022-08-10T06:36:44.226Z,67.62
2022-08-10T06:37:44.213Z,68.01
2022-08-10T06:38:44.214Z,66.78
2022-08-10T06:39:44.250Z,66.49
2022-08-10T06:40:44.212Z,65.72
2022-08-10T06:42:14.770Z,66.01
2022-08-10T06:42:44.203Z,65.24
2022-08-10T06:43:44.228Z,65.24
2022-08-10T06:44:44.197Z,64.56
2022-08-10T06:45:44.197Z,64.56
2022-08-10T06:46:48.037Z,64.66
2022-08-10T06:47:44.189Z,64.59
2022-08-10T06:48:44.184Z,64.50
2022-08-10T06:49:44.181Z,63.53
2022-08-10T06:50:55.899Z,63.53
2022-08-10T06:51:44.173Z,63.73
2022-08-10T06:52:44.203Z,64.59
2022-08-10T06:53:52.779Z,64.40
2022-08-10T06:54:44.160Z,64.59
2022-08-10T06:55:55.157Z,64.79
2022-08-10T06:57:01.602Z,64.89
2022-08-10T06:57:44.153Z,64.11
2022-08-10T06:58:44.148Z,64.69
2022-08-10T06:59:44.148Z,63.37
2022-08-10T07:00:44.229Z,63.73
2022-08-10T07:01:44.138Z,64.89
2022-08-10T07:02:44.132Z,64.11
2022-08-10T07:03:44.132Z,64.24
2022-08-10T07:04:44.126Z,63.82
2022-08-10T07:05:46.875Z,63.47
2022-08-10T07:06:44.120Z,63.85
2022-08-10T07:07:44.119Z,63.47
2022-08-10T07:08:44.113Z,63.95
2022-08-10T07:09:44.113Z,63.95
2022-08-10T07:10:45.865Z,64.14
2022-08-10T07:11:44.109Z,63.85
2022-08-10T07:12:44.107Z,63.18
2022-08-10T07:14:15.458Z,63.85
2022-08-10T07:14:44.094Z,62.50
2022-08-10T07:15:59.905Z,62.12
2022-08-10T07:16:44.088Z,62.44
2022-08-10T07:17:44.086Z,63.11
2022-08-10T07:18:44.083Z,63.21
2022-08-10T07:19:49.880Z,61.47
2022-08-10T07:20:44.077Z,61.66
2022-08-10T07:21:44.079Z,61.27
2022-08-10T07:23:08.331Z,60.63
2022-08-10T07:23:58.394Z,60.63
2022-08-10T07:24:44.063Z,61.02
2022-08-10T07:25:44.062Z,59.95
2022-08-10T07:26:44.056Z,59.66
2022-08-10T07:28:00.460Z,59.95
2022-08-10T07:28:47.948Z,59.95
2022-08-10T07:29:53.923Z,59.56
2022-08-10T07:30:44.045Z,59.66
2022-08-10T07:31:55.976Z,59.95
2022-08-10T07:32:44.037Z,59.47
2022-08-10T07:33:44.036Z,59.86
2022-08-10T07:34:44.031Z,60.82
2022-08-10T07:35:44.033Z,61.11
2022-08-10T07:36:44.025Z,59.69
2022-08-10T07:37:44.025Z,60.17
2022-08-10T07:38:44.021Z,60.47
2022-08-10T07:39:58.265Z,60.08
2022-08-10T07:40:44.043Z,59.69
2022-08-10T07:41:44.010Z,59.31
2022-08-10T07:42:46.032Z,59.59
2022-08-10T07:43:44.008Z,59.21
2022-08-10T07:44:44.002Z,59.89
2022-08-10T07:45:44.001Z,60.08
2022-08-10T07:46:43.996Z,59.31
2022-08-10T07:47:52.312Z,59.40
2022-08-10T07:48:43.991Z,58.92
2022-08-10T07:49:43.990Z,58.65
2022-08-10T07:50:43.990Z,58.37
2022-08-10T07:51:43.985Z,59.33
2022-08-10T07:52:43.980Z,59.43
2022-08-10T07:53:43.982Z,59.91
2022-08-10T07:54:43.983Z,59.43
2022-08-10T07:56:02.841Z,59.63
2022-08-10T07:56:50.262Z,60.98
2022-08-10T07:57:43.971Z,61.46
2022-08-10T07:58:46.466Z,60.30
2022-08-10T07:59:43.962Z,59.82
2022-08-10T08:00:43.976Z,59.07
2022-08-10T08:01:44.006Z,58.20
2022-08-10T08:02:43.952Z,58.30
2022-08-10T08:03:43.954Z,59.07
2022-08-10T08:04:43.946Z,58.30
2022-08-10T08:05:58.306Z,57.81
2022-08-10T08:06:43.943Z,57.91
2022-08-10T08:07:43.946Z,57.65
2022-08-10T08:08:43.949Z,56.85
2022-08-10T08:09:57.918Z,57.53
2022-08-10T08:10:43.935Z,58.23
2022-08-10T08:11:43.935Z,57.65
2022-08-10T08:12:43.926Z,57.36
2022-08-10T08:13:43.928Z,57.91
2022-08-10T08:14:43.922Z,58.69
2022-08-10T08:16:19.923Z,58.91
2022-08-10T08:16:43.922Z,59.10
2022-08-10T08:17:43.924Z,59.49
2022-08-10T08:18:58.264Z,58.91
2022-08-10T08:19:45.892Z,57.45
2022-08-10T08:20:43.911Z,58.04
2022-08-10T08:24:06.556Z,57.45
2022-08-10T08:24:06.695Z,58.74
2022-08-10T08:24:09.714Z,57.39
2022-08-10T08:24:43.902Z,57.39
2022-08-10T08:25:43.902Z,57.68
2022-08-10T08:26:46.141Z,56.71
2022-08-10T08:27:47.607Z,56.61
2022-08-10T08:28:43.898Z,57.29
2022-08-10T08:29:43.892Z,57.58
2022-08-10T08:30:48.700Z,56.90
2022-08-10T08:31:54.566Z,57.87
2022-08-10T08:32:43.884Z,59.13
2022-08-10T08:33:44.013Z,59.23
2022-08-10T08:34:43.881Z,59.03
2022-08-10T08:35:43.880Z,57.39
2022-08-10T08:36:43.882Z,57.58
2022-08-10T08:38:31.828Z,56.45
2022-08-10T08:38:43.873Z,55.96
2022-08-10T08:39:44.273Z,56.64
2022-08-10T08:40:43.868Z,56.83
2022-08-10T08:41:51.031Z,56.25
2022-08-10T08:43:47.840Z,54.99
2022-08-10T08:44:47.826Z,54.90
2022-08-10T08:46:40.930Z,56.74
2022-08-10T08:48:02.022Z,57.90
2022-08-10T08:50:08.561Z,56.67
2022-08-10T08:50:44.925Z,55.21
2022-08-10T08:52:37.984Z,55.21
2022-08-10T08:54:02.142Z,55.69
2022-08-10T08:56:05.028Z,56.67
2022-08-10T08:56:30.894Z,56.86
2022-08-10T08:58:23.980Z,56.86
2022-08-10T08:59:23.969Z,57.54
2022-08-10T09:01:37.935Z,56.09
2022-08-10T09:02:28.020Z,55.33
2022-08-10T09:04:31.906Z,54.85
2022-08-10T09:05:31.892Z,55.99
2022-08-10T09:08:00.909Z,55.82
2022-08-10T09:08:35.852Z,54.75
2022-08-10T09:10:39.827Z,54.85
2022-08-10T09:11:39.813Z,54.75
2022-08-10T09:13:43.773Z,55.75
2022-08-10T09:14:43.767Z,55.65
2022-08-10T09:16:47.740Z,53.52
2022-08-10T09:17:47.730Z,54.39
2022-08-10T09:19:51.700Z,54.00
2022-08-10T09:20:51.690Z,53.42
2022-08-10T09:22:44.585Z,54.10
2022-08-10T09:24:01.776Z,53.54
2022-08-10T09:25:48.564Z,53.45
2022-08-10T09:26:48.727Z,53.25
2022-08-10T09:29:12.550Z,53.45
2022-08-10T09:29:52.505Z,53.64
2022-08-10T09:36:15.121Z,52.59
2022-08-10T09:36:17.348Z,52.19
2022-08-10T09:36:24.758Z,53.57
2022-08-10T09:36:25.148Z,52.57
2022-08-10T09:38:02.179Z,53.54
2022-08-10T09:38:53.534Z,53.18
2022-08-10T09:41:03.934Z,52.69
2022-08-10T09:41:57.491Z,51.72
2022-08-10T09:43:50.577Z,52.14
2022-08-10T09:44:57.504Z,51.94
2022-08-10T09:46:54.551Z,52.14
2022-08-10T09:48:02.164Z,52.45
2022-08-10T09:49:56.984Z,50.99
2022-08-10T09:51:34.442Z,51.58
2022-08-10T09:52:40.507Z,51.09
2022-08-10T09:53:40.500Z,51.67
2022-08-10T09:56:19.070Z,50.43
2022-08-10T09:56:44.472Z,51.90
2022-08-10T09:58:48.457Z,48.88
2022-08-10T10:00:00.351Z,50.63
2022-08-10T10:01:58.157Z,50.99
2022-08-10T10:02:41.531Z,51.09
2022-08-10T10:04:45.513Z,50.34
2022-08-10T10:05:51.325Z,49.37
2022-08-10T10:07:49.470Z,48.78
2022-08-10T10:08:49.465Z,50.14
2022-08-10T10:10:53.449Z,49.78
2022-08-10T10:11:53.442Z,48.71
2022-08-10T10:14:04.020Z,47.53
2022-08-10T10:14:57.403Z,49.49
2022-08-10T10:17:01.381Z,49.58
2022-08-10T10:18:01.364Z,48.02
2022-08-10T10:20:05.335Z,47.25
2022-08-10T10:21:05.320Z,46.95
2022-08-10T10:23:09.312Z,46.08
2022-08-10T10:24:20.244Z,45.18
2022-08-10T10:26:18.345Z,44.69
2022-08-10T10:27:16.260Z,44.40
2022-08-10T10:29:44.665Z,47.59
2022-08-10T10:30:17.228Z,46.03
2022-08-10T10:32:10.128Z,46.23
2022-08-10T10:33:13.268Z,46.73
2022-08-10T10:35:03.216Z,46.83
2022-08-10T10:36:03.199Z,47.15
2022-08-10T10:38:10.220Z,47.71
2022-08-10T10:38:56.282Z,47.80
2022-08-10T10:41:00.264Z,49.66
2022-08-10T10:42:04.648Z,48.10
2022-08-10T10:44:04.221Z,49.78
2022-08-10T10:45:04.218Z,49.78
2022-08-10T10:46:57.365Z,46.15
2022-08-10T10:47:57.297Z,46.83
2022-08-10T10:50:01.275Z,49.56
2022-08-10T10:51:01.264Z,49.46
2022-08-10T10:53:05.250Z,46.83
2022-08-10T10:54:05.245Z,48.61
2022-08-10T10:56:14.378Z,49.41
2022-08-10T10:57:09.202Z,47.46
2022-08-10T10:59:16.142Z,48.75
2022-08-10T11:00:13.174Z,46.39
2022-08-10T11:02:06.070Z,49.54
2022-08-10T11:03:06.058Z,46.51
2022-08-10T11:05:10.033Z,45.51
2022-08-10T11:06:10.025Z,45.90
2022-08-10T11:08:03.112Z,48.05
2022-08-10T11:09:03.108Z,46.78
2022-08-10T11:11:20.462Z,46.90
2022-08-10T11:12:07.087Z,46.51
2022-08-10T11:14:26.463Z,47.39
2022-08-10T11:15:11.052Z,44.68
2022-08-10T11:17:15.037Z,44.29
2022-08-10T11:18:15.025Z,42.73
2022-08-10T11:20:19.005Z,44.51
2022-08-10T11:21:18.993Z,45.58
2022-08-10T11:23:22.989Z,43.55
2022-08-10T11:24:47.147Z,41.80
2022-08-10T11:26:26.942Z,46.68
2022-08-10T11:27:26.922Z,43.85
2022-08-10T11:29:30.897Z,40.92
2022-08-10T11:30:30.892Z,40.72
2022-08-10T11:32:23.801Z,43.55
2022-08-10T11:33:31.114Z,41.80
2022-08-10T11:35:31.612Z,42.79
2022-08-10T11:36:27.766Z,41.42
2022-08-10T11:38:42.826Z,39.86
2022-08-10T11:39:31.762Z,40.64
2022-08-10T11:42:10.243Z,41.35
2022-08-10T11:42:36.500Z,41.35
2022-08-10T11:44:39.787Z,39.69
2022-08-10T11:45:52.224Z,39.98
2022-08-10T11:47:32.772Z,43.13
2022-08-10T11:48:53.788Z,40.19
2022-08-10T11:50:36.745Z,40.68
2022-08-10T11:51:36.738Z,41.07
2022-08-10T11:53:41.209Z,39.53
2022-08-10T11:54:41.201Z,37.75
2022-08-10T11:55:41.211Z,37.95
2022-08-10T11:56:41.214Z,38.24
2022-08-10T11:57:54.013Z,41.66
2022-08-10T11:58:41.217Z,40.70
2022-08-10T11:59:41.224Z,38.75
2022-08-10T12:00:41.226Z,37.75
2022-08-10T12:01:41.229Z,37.35
2022-08-10T12:02:41.371Z,38.04
2022-08-10T12:03:41.236Z,39.62
2022-08-10T12:04:41.234Z,40.90
2022-08-10T12:05:48.353Z,40.92
2022-08-10T12:06:55.371Z,41.02
2022-08-10T12:10:06.364Z,40.63
2022-08-10T12:10:06.365Z,40.45
2022-08-10T12:10:10.025Z,39.47
2022-08-10T12:10:41.266Z,40.45
2022-08-10T12:11:41.268Z,38.67
2022-08-10T12:12:41.268Z,38.39
2022-08-10T12:13:53.897Z,37.98
2022-08-10T12:14:41.276Z,39.35
2022-08-10T12:15:41.284Z,40.23
2022-08-10T12:16:41.289Z,39.47
2022-08-10T12:17:41.321Z,38.78
2022-08-10T12:18:41.295Z,39.37
2022-08-10T12:20:02.282Z,38.68
2022-08-10T12:20:41.306Z,37.90
2022-08-10T12:21:41.315Z,37.71
2022-08-10T12:22:41.304Z,37.71
2022-08-10T12:23:41.319Z,36.14
2022-08-10T12:24:41.323Z,38.68
2022-08-10T12:25:55.934Z,37.61
2022-08-10T12:26:42.648Z,39.56
2022-08-10T12:27:41.338Z,37.21
2022-08-10T12:28:50.545Z,36.24
2022-08-10T12:29:41.347Z,35.94
2022-08-10T12:30:41.353Z,36.22
2022-08-10T12:31:41.359Z,36.41
2022-08-10T12:32:41.358Z,37.69
2022-08-10T12:34:01.816Z,36.80
2022-08-10T12:34:41.368Z,36.32
2022-08-10T12:35:56.139Z,36.51
2022-08-10T12:36:41.378Z,36.41
2022-08-10T12:37:41.381Z,36.80
2022-08-10T12:38:41.385Z,36.98
2022-08-10T12:39:41.458Z,37.29
2022-08-10T12:40:41.438Z,37.00
2022-08-10T12:41:44.960Z,38.67
2022-08-10T12:42:42.162Z,38.94
2022-08-10T12:44:07.841Z,38.65
2022-08-10T12:44:42.748Z,36.90
2022-08-10T12:45:41.416Z,37.39
2022-08-10T12:46:41.416Z,38.68
2022-08-10T12:47:41.417Z,40.06
2022-08-10T12:48:41.426Z,37.12
2022-08-10T12:49:41.425Z,38.68
2022-08-10T12:50:41.429Z,38.49
2022-08-10T12:51:41.433Z,40.25
2022-08-10T12:52:41.433Z,39.98
2022-08-10T12:53:41.451Z,39.86
2022-08-10T12:54:41.443Z,37.21
2022-08-10T12:55:41.454Z,35.94
2022-08-10T12:56:41.453Z,37.41
2022-08-10T12:57:41.455Z,37.90
2022-08-10T12:58:59.133Z,38.29
2022-08-10T12:59:42.979Z,38.31
2022-08-10T13:00:59.628Z,35.86
2022-08-10T13:02:08.629Z,35.86
2022-08-10T13:02:46.614Z,37.63
2022-08-10T13:04:20.979Z,35.85
2022-08-10T13:04:41.476Z,35.94
2022-08-10T13:06:02.025Z,37.33
2022-08-10T13:06:41.488Z,38.51
2022-08-10T13:08:03.645Z,36.65
2022-08-10T13:08:41.493Z,42.35
2022-08-10T13:09:56.625Z,40.76
2022-08-10T13:10:41.502Z,38.12
2022-08-10T13:12:37.209Z,39.41
2022-08-10T13:12:41.510Z,35.27
2022-08-10T13:13:41.514Z,38.72
2022-08-10T13:14:41.520Z,36.45
2022-08-10T13:15:49.127Z,34.98
2022-08-10T13:16:41.528Z,36.08
2022-08-10T13:17:42.769Z,37.04
2022-08-10T13:18:41.532Z,37.05
2022-08-10T13:19:56.013Z,37.74
2022-08-10T13:20:41.543Z,36.78
2022-08-10T13:21:41.550Z,37.25
2022-08-10T13:22:41.547Z,35.88
2022-08-10T13:23:41.554Z,35.27
2022-08-10T13:24:41.555Z,35.94
2022-08-10T13:25:41.566Z,35.25
2022-08-10T13:27:23.575Z,37.04
2022-08-10T13:27:59.759Z,35.29
2022-08-10T13:28:45.225Z,35.66
2022-08-10T13:29:41.579Z,36.66
2022-08-10T13:30:41.580Z,35.29
2022-08-10T13:32:03.792Z,36.47
2022-08-10T13:32:41.587Z,35.80
2022-08-10T13:34:38.754Z,36.11
2022-08-10T13:34:44.976Z,37.90
2022-08-10T13:35:41.603Z,35.74
2022-08-10T13:36:41.640Z,35.05
2022-08-10T13:37:41.611Z,35.55
2022-08-10T13:38:41.609Z,35.85
2022-08-10T13:39:59.163Z,35.55
2022-08-10T13:40:41.626Z,35.47
2022-08-10T13:41:41.627Z,36.26
2022-08-10T13:42:41.813Z,32.41
2022-08-10T13:43:41.634Z,32.31
2022-08-10T13:44:41.634Z,31.94
2022-08-10T13:45:43.983Z,32.82
2022-08-10T13:46:41.650Z,33.80
2022-08-10T13:47:48.808Z,33.80
2022-08-10T13:48:41.654Z,35.10
2022-08-10T13:49:41.657Z,33.72
2022-08-10T13:50:41.668Z,36.08
2022-08-10T13:51:54.259Z,32.93
2022-08-10T13:52:41.674Z,32.17
2022-08-10T13:53:41.680Z,33.82
2022-08-10T13:54:41.687Z,32.15
2022-08-10T13:55:53.355Z,32.43
2022-08-10T13:56:41.696Z,34.38
2022-08-10T13:57:47.660Z,33.49
2022-08-10T13:58:41.703Z,33.39
2022-08-10T14:00:35.420Z,35.74
2022-08-10T14:00:41.713Z,37.30
2022-08-10T14:01:41.832Z,33.89
2022-08-10T14:02:41.724Z,33.98
2022-08-10T14:03:41.732Z,34.10
2022-08-10T14:04:41.738Z,35.20
2022-08-10T14:05:41.743Z,33.43
2022-08-10T14:06:41.746Z,33.13
2022-08-10T14:08:00.570Z,33.72
2022-08-10T14:08:41.757Z,34.39
2022-08-10T14:09:41.764Z,33.98
2022-08-10T14:11:09.497Z,34.06
2022-08-10T14:11:41.774Z,33.75
2022-08-10T14:12:41.980Z,34.33
2022-08-10T14:13:41.784Z,34.70
2022-08-10T14:14:41.797Z,33.92
2022-08-10T14:15:41.801Z,35.94
2022-08-10T14:16:41.801Z,36.32
2022-08-10T14:17:44.899Z,34.75
2022-08-10T14:18:41.804Z,35.63
2022-08-10T14:19:43.300Z,36.41
2022-08-10T14:20:41.817Z,36.92
2022-08-10T14:21:41.826Z,37.12
2022-08-10T14:22:41.926Z,35.76
2022-08-10T14:23:41.828Z,35.86
2022-08-10T14:24:41.835Z,35.97
2022-08-10T14:25:41.844Z,35.70
2022-08-10T14:26:41.842Z,35.03
2022-08-10T14:28:03.107Z,34.64
2022-08-10T14:28:41.855Z,34.34
2022-08-10T14:29:41.857Z,33.85